Romance, Arkansas
Current Conditions -  °F | °C
As of 6:56 PM on Wednesday 22 Oct 2014 (Local Time) from KSRC Reporting Station
Clear Clear  
Wind Chill: 59°   Ceiling: Unl
Heat Index: 59°   Visibility: 10mi
Dew Point: 44°   Wind: 5mph
Humidity: 58%   Direction: 80°E
Pressure: 30.18"   Gusts: NA
Location:  35.24°N, 92.05°W
Report Text: KSRC 222356Z AUTO 08004KT 10SM CLR 15/07 A3018 RMK AO2 SLP228 T01500067 10211 20150 56004 TSNO
Loading
Personal Weather Stations






























Interactive Weather Map
Tropical Storm Tracking
New forecast layout! Learn more

10-Day Weather Forecast

Advertisements
Track Severe Weather on mobile